Time,TemperatureF,DewpointF,PressureIn,WindDirection,WindDirectionDegrees,WindSpeedMPH,WindSpeedGustMPH,Humidity,HourlyPrecipIn,Conditions,Clouds,dailyrainin,SoftwareType,DateUTC
2013-01-19 00:13:00,27.1,26.6,30.23,SSW,202,0.0,-999.0,98,-99.99,,,0.00,Acu-Link.com,2013-01-19 05:13:00,
2013-01-19 00:29:00,27.0,26.5,30.23,SSW,202,0.0,-999.0,98,-99.99,,,0.00,Acu-Link.com,2013-01-19 05:29:00,
2013-01-19 00:44:00,26.2,25.7,30.23,WNW,292,0.0,-999.0,98,-99.99,,,0.00,Acu-Link.com,2013-01-19 05:44:00,
2013-01-19 00:59:00,26.4,25.9,30.22,East,90,0.0,-999.0,98,-99.99,,,0.00,Acu-Link.com,2013-01-19 05:59:00,
2013-01-19 01:14:00,25.3,24.8,30.23,WSW,247,0.0,-999.0,98,-99.99,,,0.00,Acu-Link.com,2013-01-19 06:14:00,
2013-01-19 01:30:00,25.5,25.0,30.22,WNW,292,0.0,-999.0,98,-99.99,,,0.00,Acu-Link.com,2013-01-19 06:30:00,
2013-01-19 01:45:00,25.3,24.8,30.22,SW,225,0.0,-999.0,98,-99.99,,,0.00,Acu-Link.com,2013-01-19 06:45:00,
2013-01-19 02:00:00,25.0,24.5,30.23,ENE,67,0.0,-999.0,98,-99.99,,,0.00,Acu-Link.com,2013-01-19 07:00:00,
2013-01-19 02:16:00,24.6,24.1,30.22,NE,45,0.0,-999.0,98,-99.99,,,0.00,Acu-Link.com,2013-01-19 07:16:00,
2013-01-19 02:31:00,24.3,23.8,30.23,WSW,247,0.0,-999.0,98,-99.99,,,0.00,Acu-Link.com,2013-01-19 07:31:00,
2013-01-19 02:46:00,24.8,24.3,30.22,SW,225,0.0,-999.0,98,-99.99,,,0.00,Acu-Link.com,2013-01-19 07:46:00,
2013-01-19 03:02:00,24.6,24.1,30.22,SSW,202,0.0,-999.0,98,-99.99,,,0.00,Acu-Link.com,2013-01-19 08:02:00,
2013-01-19 03:17:00,24.4,23.9,30.22,WSW,247,0.0,-999.0,98,-99.99,,,0.00,Acu-Link.com,2013-01-19 08:17:00,
2013-01-19 03:32:00,24.4,23.9,30.22,South,180,0.0,-999.0,98,-99.99,,,0.00,Acu-Link.com,2013-01-19 08:32:00,
2013-01-19 03:48:00,24.3,23.8,30.22,SSW,202,0.0,-999.0,98,-99.99,,,0.00,Acu-Link.com,2013-01-19 08:48:00,
2013-01-19 04:35:00,23.9,23.4,30.21,SW,225,0.0,-999.0,98,-99.99,,,0.00,Acu-Link.com,2013-01-19 09:35:00,
2013-01-19 04:51:00,24.1,23.6,30.21,SW,225,0.0,-999.0,98,-99.99,,,0.00,Acu-Link.com,2013-01-19 09:51:00,
2013-01-19 05:06:00,23.9,23.4,30.21,SSE,157,0.0,-999.0,98,-99.99,,,0.00,Acu-Link.com,2013-01-19 10:06:00,
2013-01-19 05:21:00,23.5,23.0,30.22,West,270,0.0,-999.0,98,-99.99,,,0.00,Acu-Link.com,2013-01-19 10:21:00,
2013-01-19 05:36:00,23.4,22.9,30.22,SW,225,0.0,-999.0,98,-99.99,,,0.00,Acu-Link.com,2013-01-19 10:36:00,
2013-01-19 05:51:00,23.2,22.7,30.23,SW,225,0.0,-999.0,98,-99.99,,,0.00,Acu-Link.com,2013-01-19 10:51:00,
2013-01-19 06:07:00,22.6,22.1,30.22,SW,225,0.0,-999.0,98,-99.99,,,0.00,Acu-Link.com,2013-01-19 11:07:00,
2013-01-19 08:12:00,22.6,22.1,30.21,SSE,157,0.0,-999.0,98,-99.99,,,0.00,Acu-Link.com,2013-01-19 13:12:00,
2013-01-19 08:27:00,22.8,22.3,30.22,SW,225,0.0,-999.0,98,-99.99,,,0.00,Acu-Link.com,2013-01-19 13:27:00,
2013-01-19 08:42:00,25.2,24.7,30.21,South,180,0.0,-999.0,98,-99.99,,,0.00,Acu-Link.com,2013-01-19 13:42:00,
2013-01-19 08:58:00,27.0,26.5,30.21,WSW,247,0.0,-999.0,98,-99.99,,,0.00,Acu-Link.com,2013-01-19 13:58:00,
2013-01-19 09:13:00,28.9,28.4,30.21,SSE,157,0.0,-999.0,98,-99.99,,,0.00,Acu-Link.com,2013-01-19 14:13:00,
2013-01-19 09:28:00,33.1,32.6,30.21,SW,225,0.0,-999.0,98,-99.99,,,0.00,Acu-Link.com,2013-01-19 14:28:00,
2013-01-19 09:44:00,36.0,35.5,30.21,WNW,292,0.0,-999.0,98,-99.99,,,0.00,Acu-Link.com,2013-01-19 14:44:00,
2013-01-19 09:59:00,41.7,39.8,30.21,ENE,67,1.7,-999.0,93,-99.99,,,0.00,Acu-Link.com,2013-01-19 14:59:00,
2013-01-19 10:14:00,45.7,40.8,30.20,NE,45,0.0,-999.0,83,-99.99,,,0.00,Acu-Link.com,2013-01-19 15:14:00,
2013-01-19 10:30:00,48.6,40.0,30.20,ESE,112,2.2,-999.0,72,-99.99,,,0.00,Acu-Link.com,2013-01-19 15:30:00,
2013-01-19 10:45:00,46.4,39.6,30.19,SW,225,1.1,-999.0,77,-99.99,,,0.00,Acu-Link.com,2013-01-19 15:45:00,
2013-01-19 11:00:00,50.7,39.8,30.17,NE,45,0.0,-999.0,66,-99.99,,,0.00,Acu-Link.com,2013-01-19 16:00:00,
2013-01-19 11:16:00,45.0,38.6,30.16,West,270,2.2,-999.0,78,-99.99,,,0.00,Acu-Link.com,2013-01-19 16:16:00,
2013-01-19 11:31:00,46.6,39.4,30.15,ESE,112,2.2,-999.0,76,-99.99,,,0.00,Acu-Link.com,2013-01-19 16:31:00,
2013-01-19 11:46:00,47.5,39.3,30.14,SSE,157,0.0,-999.0,73,-99.99,,,0.00,Acu-Link.com,2013-01-19 16:46:00,
2013-01-19 12:02:00,46.8,39.3,30.12,ESE,112,2.7,-999.0,75,-99.99,,,0.00,Acu-Link.com,2013-01-19 17:02:00,
2013-01-19 12:17:00,46.9,39.1,30.10,WSW,247,2.7,-999.0,74,-99.99,,,0.00,Acu-Link.com,2013-01-19 17:17:00,
2013-01-19 12:47:00,49.1,39.0,30.07,SW,225,1.1,-999.0,68,-99.99,,,0.00,Acu-Link.com,2013-01-19 17:47:00,
2013-01-19 13:03:00,50.7,39.8,30.06,ESE,112,6.3,-999.0,66,-99.99,,,0.00,Acu-Link.com,2013-01-19 18:03:00,
2013-01-19 13:18:00,49.1,37.8,30.05,WSW,247,2.7,-999.0,65,-99.99,,,0.00,Acu-Link.com,2013-01-19 18:18:00,
2013-01-19 13:33:00,50.4,39.1,30.04,SE,135,5.8,-999.0,65,-99.99,,,0.00,Acu-Link.com,2013-01-19 18:33:00,
2013-01-19 13:49:00,50.9,38.4,30.02,ESE,112,2.2,-999.0,62,-99.99,,,0.00,Acu-Link.com,2013-01-19 18:49:00,
2013-01-19 14:04:00,50.5,38.0,30.01,SSE,157,1.7,-999.0,62,-99.99,,,0.00,Acu-Link.com,2013-01-19 19:04:00,
2013-01-19 14:19:00,50.9,37.9,30.01,SSW,202,3.7,-999.0,61,-99.99,,,0.00,Acu-Link.com,2013-01-19 19:19:00,
2013-01-19 14:50:00,51.6,38.6,30.00,SE,135,3.2,-999.0,61,-99.99,,,0.00,Acu-Link.com,2013-01-19 19:50:00,
2013-01-19 15:05:00,51.8,38.4,29.99,ESE,112,3.7,-999.0,60,-99.99,,,0.00,Acu-Link.com,2013-01-19 20:05:00,
2013-01-19 15:20:00,51.6,39.0,29.98,SW,225,2.7,-999.0,62,-99.99,,,0.00,Acu-Link.com,2013-01-19 20:20:00,
2013-01-19 16:22:00,50.9,38.4,29.95,West,270,1.1,-999.0,62,-99.99,,,0.00,Acu-Link.com,2013-01-19 21:22:00,
2013-01-19 16:53:00,49.1,39.0,29.96,North,0,1.7,-999.0,68,-99.99,,,0.00,Acu-Link.com,2013-01-19 21:53:00,
2013-01-19 17:23:00,47.5,38.9,29.95,SSW,202,2.2,-999.0,72,-99.99,,,0.00,Acu-Link.com,2013-01-19 22:23:00,
2013-01-19 17:38:00,45.7,38.2,29.96,SE,135,1.7,-999.0,75,-99.99,,,0.00,Acu-Link.com,2013-01-19 22:38:00,
2013-01-19 17:54:00,44.2,38.1,29.95,ESE,112,0.0,-999.0,79,-99.99,,,0.00,Acu-Link.com,2013-01-19 22:54:00,
2013-01-19 18:25:00,41.7,37.8,29.96,ESE,112,0.0,-999.0,86,-99.99,,,0.00,Acu-Link.com,2013-01-19 23:25:00,
2013-01-19 18:40:00,41.4,37.5,29.96,ESE,112,0.0,-999.0,86,-99.99,,,0.00,Acu-Link.com,2013-01-19 23:40:00,
2013-01-19 18:55:00,40.6,37.0,29.95,West,270,0.0,-999.0,87,-99.99,,,0.00,Acu-Link.com,2013-01-19 23:55:00,
2013-01-19 19:11:00,39.6,37.7,29.95,SSW,202,0.0,-999.0,93,-99.99,,,0.00,Acu-Link.com,2013-01-20 00:11:00,
2013-01-19 19:57:00,36.5,36.0,29.95,West,270,0.0,-999.0,98,-99.99,,,0.00,Acu-Link.com,2013-01-20 00:57:00,
2013-01-19 20:12:00,35.6,35.1,29.95,SE,135,0.0,-999.0,98,-99.99,,,0.00,Acu-Link.com,2013-01-20 01:12:00,
2013-01-19 20:27:00,35.1,34.6,29.94,South,180,0.0,-999.0,98,-99.99,,,0.00,Acu-Link.com,2013-01-20 01:27:00,
2013-01-19 20:42:00,34.7,34.2,29.94,SW,225,0.0,-999.0,98,-99.99,,,0.00,Acu-Link.com,2013-01-20 01:42:00,
2013-01-19 21:28:00,34.3,33.8,29.92,West,270,0.0,-999.0,98,-99.99,,,0.00,Acu-Link.com,2013-01-20 02:28:00,
2013-01-19 21:44:00,34.2,33.7,29.92,ESE,112,0.0,-999.0,98,-99.99,,,0.00,Acu-Link.com,2013-01-20 02:44:00,
2013-01-19 21:59:00,34.3,33.8,29.91,South,180,0.0,-999.0,98,-99.99,,,0.00,Acu-Link.com,2013-01-20 02:59:00,
2013-01-19 22:14:00,32.9,32.4,29.90,WNW,292,0.0,-999.0,98,-99.99,,,0.00,Acu-Link.com,2013-01-20 03:14:00,
2013-01-19 22:29:00,31.6,31.1,29.90,SE,135,1.7,-999.0,98,-99.99,,,0.00,Acu-Link.com,2013-01-20 03:29:00,
2013-01-19 23:00:00,30.6,30.1,29.90,SW,225,0.0,-999.0,98,-99.99,,,0.00,Acu-Link.com,2013-01-20 04:00:00,
2013-01-19 23:15:00,30.9,30.4,29.89,NE,45,0.0,-999.0,98,-99.99,,,0.00,Acu-Link.com,2013-01-20 04:15:00,
2013-01-19 23:46:00,30.7,30.2,29.88,WNW,292,0.0,-999.0,98,-99.99,,,0.00,Acu-Link.com,2013-01-20 04:46:00,